SWA1245 KSMF-KLAX
Flight info
| Callsign | SWA1245 |
|---|---|
| Flight time | 0h 53m |
| Altitude | 31000 |
| Route | FTHIL3 FTHIL PXN BURGL IRNMN2 |
| Aircraft | B738/M-SDE2E3FGHIRWXY/LB1 |
Departure
| Time | 2026-05-06 15:07 |
|---|---|
| Airport | Sacramento International Airport (KSMF) |
Arrival
| Time | 2026-05-06 16:00 |
|---|---|
| Airport | Los Angeles International Airport (KLAX) |
| Time | Latitude | Longitude | Altitude | Speed | Heading |
|---|---|---|---|---|---|
| 2026-05-06 14:52 | 38.69626 | -121.59241 | 25 ft | 0 kts | 181° |
| 2026-05-06 15:00 | 38.69632 | -121.59241 | 22 ft | 2 kts | 181° |
| 2026-05-06 15:00 | 38.69648 | -121.59241 | 24 ft | 2 kts | 181° |
| 2026-05-06 15:00 | 38.69665 | -121.59240 | 24 ft | 2 kts | 181° |
| 2026-05-06 15:00 | 38.69681 | -121.59237 | 22 ft | 2 kts | 225° |
| 2026-05-06 15:01 | 38.69688 | -121.59222 | 23 ft | 0 kts | 271° |
| 2026-05-06 15:01 | 38.69688 | -121.59232 | 24 ft | 2 kts | 271° |
| 2026-05-06 15:01 | 38.69689 | -121.59261 | 22 ft | 4 kts | 271° |
| 2026-05-06 15:01 | 38.69690 | -121.59308 | 24 ft | 6 kts | 271° |
| 2026-05-06 15:02 | 38.69691 | -121.59373 | 22 ft | 8 kts | 271° |
| 2026-05-06 15:02 | 38.69692 | -121.59435 | 22 ft | 10 kts | 271° |
| 2026-05-06 15:02 | 38.69694 | -121.59531 | 22 ft | 12 kts | 271° |
| 2026-05-06 15:03 | 38.69695 | -121.59591 | 22 ft | 12 kts | 271° |
| 2026-05-06 15:03 | 38.69697 | -121.59716 | 22 ft | 19 kts | 271° |
| 2026-05-06 15:03 | 38.69759 | -121.59858 | 22 ft | 20 kts | 348° |
| 2026-05-06 15:04 | 38.69898 | -121.59860 | 22 ft | 20 kts | 359° |
| 2026-05-06 15:04 | 38.70031 | -121.59856 | 22 ft | 19 kts | 1° |
| 2026-05-06 15:04 | 38.70161 | -121.59852 | 22 ft | 18 kts | 360° |
| 2026-05-06 15:04 | 38.70287 | -121.59853 | 22 ft | 18 kts | 0° |
| 2026-05-06 15:05 | 38.70409 | -121.59851 | 23 ft | 17 kts | 1° |
| 2026-05-06 15:05 | 38.70540 | -121.59847 | 25 ft | 23 kts | 1° |
| 2026-05-06 15:05 | 38.70696 | -121.59861 | 23 ft | 23 kts | 326° |
| 2026-05-06 15:05 | 38.70717 | -121.60025 | 22 ft | 18 kts | 262° |
| 2026-05-06 15:06 | 38.70591 | -121.60113 | 25 ft | 23 kts | 182° |
| 2026-05-06 15:06 | 38.70292 | -121.60116 | 27 ft | 82 kts | 180° |
| 2026-05-06 15:06 | 38.69442 | -121.60126 | 27 ft | 159 kts | 178° |
| 2026-05-06 15:06 | 38.68201 | -121.60133 | 543 ft | 190 kts | 179° |
| 2026-05-06 15:07 | 38.66889 | -121.59861 | 1633 ft | 184 kts | 161° |
| 2026-05-06 15:07 | 38.65667 | -121.59274 | 2532 ft | 194 kts | 161° |
| 2026-05-06 15:07 | 38.64347 | -121.58711 | 3177 ft | 208 kts | 161° |
| 2026-05-06 15:07 | 38.62881 | -121.58090 | 3416 ft | 235 kts | 161° |
| 2026-05-06 15:08 | 38.61258 | -121.57400 | 3676 ft | 259 kts | 161° |
| 2026-05-06 15:08 | 38.59503 | -121.56653 | 4209 ft | 271 kts | 161° |
| 2026-05-06 15:08 | 38.57691 | -121.55880 | 5050 ft | 277 kts | 161° |
| 2026-05-06 15:08 | 38.55856 | -121.55096 | 5970 ft | 279 kts | 160° |
| 2026-05-06 15:09 | 38.54024 | -121.54312 | 6821 ft | 283 kts | 159° |
| 2026-05-06 15:09 | 38.52141 | -121.53505 | 7634 ft | 288 kts | 160° |
| 2026-05-06 15:09 | 38.50231 | -121.52687 | 8460 ft | 292 kts | 160° |
| 2026-05-06 15:09 | 38.48291 | -121.51856 | 9292 ft | 296 kts | 160° |
| 2026-05-06 15:10 | 38.46322 | -121.51012 | 10110 ft | 301 kts | 160° |
| 2026-05-06 15:10 | 38.44290 | -121.50141 | 10555 ft | 320 kts | 160° |
| 2026-05-06 15:10 | 38.42095 | -121.49199 | 10743 ft | 345 kts | 160° |
| 2026-05-06 15:10 | 38.39741 | -121.48189 | 10967 ft | 367 kts | 160° |
| 2026-05-06 15:11 | 38.37285 | -121.47138 | 11510 ft | 376 kts | 160° |
| 2026-05-06 15:11 | 38.34788 | -121.46072 | 12225 ft | 380 kts | 160° |
| 2026-05-06 15:11 | 38.32267 | -121.44997 | 12966 ft | 384 kts | 160° |
| 2026-05-06 15:11 | 38.29720 | -121.43910 | 13671 ft | 388 kts | 160° |
| 2026-05-06 15:12 | 38.27144 | -121.42812 | 14320 ft | 393 kts | 159° |
| 2026-05-06 15:12 | 38.24535 | -121.41700 | 14952 ft | 397 kts | 159° |
| 2026-05-06 15:12 | 38.21904 | -121.40580 | 15599 ft | 400 kts | 159° |
| 2026-05-06 15:12 | 38.19249 | -121.39451 | 16229 ft | 404 kts | 159° |
| 2026-05-06 15:13 | 38.16568 | -121.38311 | 16844 ft | 408 kts | 159° |
| 2026-05-06 15:13 | 38.13860 | -121.37160 | 17454 ft | 412 kts | 159° |
| 2026-05-06 15:13 | 38.11126 | -121.35999 | 18056 ft | 416 kts | 159° |
| 2026-05-06 15:13 | 38.08365 | -121.34827 | 18620 ft | 420 kts | 159° |
| 2026-05-06 15:14 | 38.05582 | -121.33648 | 19134 ft | 424 kts | 159° |
| 2026-05-06 15:14 | 38.02777 | -121.32459 | 19670 ft | 427 kts | 159° |
| 2026-05-06 15:14 | 37.99951 | -121.31264 | 20194 ft | 430 kts | 159° |
| 2026-05-06 15:14 | 37.97100 | -121.30059 | 20720 ft | 433 kts | 159° |
| 2026-05-06 15:15 | 37.94233 | -121.28847 | 21240 ft | 437 kts | 159° |
| 2026-05-06 15:15 | 37.91339 | -121.27626 | 21737 ft | 440 kts | 159° |
| 2026-05-06 15:15 | 37.88427 | -121.26397 | 22225 ft | 443 kts | 159° |
| 2026-05-06 15:15 | 37.85491 | -121.25160 | 22702 ft | 446 kts | 159° |
| 2026-05-06 15:16 | 37.82531 | -121.23915 | 23172 ft | 450 kts | 159° |
| 2026-05-06 15:16 | 37.79553 | -121.22663 | 23617 ft | 453 kts | 159° |
| 2026-05-06 15:16 | 37.76589 | -121.21417 | 24016 ft | 456 kts | 159° |
| 2026-05-06 15:16 | 37.73564 | -121.20145 | 24400 ft | 459 kts | 159° |
| 2026-05-06 15:17 | 37.70530 | -121.18871 | 24799 ft | 461 kts | 159° |
| 2026-05-06 15:17 | 37.67479 | -121.17591 | 25191 ft | 463 kts | 159° |
| 2026-05-06 15:17 | 37.64412 | -121.16307 | 25570 ft | 465 kts | 159° |
| 2026-05-06 15:17 | 37.61331 | -121.15017 | 25938 ft | 468 kts | 159° |
| 2026-05-06 15:18 | 37.58236 | -121.13723 | 26303 ft | 470 kts | 159° |
| 2026-05-06 15:18 | 37.55122 | -121.12422 | 26663 ft | 472 kts | 159° |
| 2026-05-06 15:18 | 37.51994 | -121.11116 | 27014 ft | 475 kts | 159° |
| 2026-05-06 15:18 | 37.48850 | -121.09804 | 27357 ft | 477 kts | 159° |
| 2026-05-06 15:19 | 37.45691 | -121.08488 | 27688 ft | 479 kts | 159° |
| 2026-05-06 15:19 | 37.42520 | -121.07168 | 28013 ft | 481 kts | 159° |
| 2026-05-06 15:19 | 37.39332 | -121.05842 | 28358 ft | 483 kts | 159° |
| 2026-05-06 15:19 | 37.36144 | -121.04517 | 28791 ft | 482 kts | 159° |
| 2026-05-06 15:20 | 37.32964 | -121.03198 | 29307 ft | 480 kts | 159° |
| 2026-05-06 15:20 | 37.29802 | -121.01887 | 29839 ft | 477 kts | 159° |
| 2026-05-06 15:20 | 37.26653 | -121.00583 | 30302 ft | 476 kts | 159° |
| 2026-05-06 15:20 | 37.23507 | -120.99280 | 30676 ft | 476 kts | 159° |
| 2026-05-06 15:21 | 37.20364 | -120.97979 | 30999 ft | 476 kts | 159° |
| 2026-05-06 15:21 | 37.14088 | -120.95382 | 31011 ft | 481 kts | 159° |
| 2026-05-06 15:22 | 37.07791 | -120.92786 | 30992 ft | 476 kts | 159° |
| 2026-05-06 15:22 | 37.01497 | -120.90195 | 31015 ft | 476 kts | 159° |
| 2026-05-06 15:23 | 36.95202 | -120.87606 | 31019 ft | 477 kts | 159° |
| 2026-05-06 15:23 | 36.88889 | -120.85015 | 31014 ft | 477 kts | 159° |
| 2026-05-06 15:24 | 36.82576 | -120.82429 | 31021 ft | 478 kts | 158° |
| 2026-05-06 15:24 | 36.76262 | -120.79846 | 31016 ft | 478 kts | 158° |
| 2026-05-06 15:25 | 36.70003 | -120.77096 | 31005 ft | 474 kts | 151° |
| 2026-05-06 15:25 | 36.64163 | -120.73332 | 31016 ft | 472 kts | 148° |
| 2026-05-06 15:26 | 36.58373 | -120.69459 | 31013 ft | 472 kts | 148° |
| 2026-05-06 15:26 | 36.52565 | -120.65645 | 31006 ft | 472 kts | 148° |
| 2026-05-06 15:27 | 36.46738 | -120.61875 | 31010 ft | 472 kts | 149° |
| 2026-05-06 15:27 | 36.40929 | -120.58136 | 31020 ft | 476 kts | 149° |
| 2026-05-06 15:28 | 36.34987 | -120.54314 | 31000 ft | 484 kts | 149° |
| 2026-05-06 15:28 | 36.29014 | -120.50482 | 30992 ft | 482 kts | 149° |
| 2026-05-06 15:29 | 36.23177 | -120.46744 | 30991 ft | 481 kts | 149° |
| 2026-05-06 15:29 | 36.17234 | -120.42941 | 31008 ft | 480 kts | 149° |
| 2026-05-06 15:30 | 36.11290 | -120.39145 | 31017 ft | 480 kts | 148° |
| 2026-05-06 15:30 | 36.05383 | -120.35377 | 31000 ft | 481 kts | 148° |
| 2026-05-06 15:31 | 35.99435 | -120.31590 | 31003 ft | 481 kts | 148° |
| 2026-05-06 15:31 | 35.93478 | -120.27805 | 30999 ft | 482 kts | 148° |
| 2026-05-06 15:32 | 35.84532 | -120.22132 | 31000 ft | 482 kts | 148° |
| 2026-05-06 15:32 | 35.78565 | -120.18355 | 30988 ft | 482 kts | 148° |
| 2026-05-06 15:33 | 35.72594 | -120.14582 | 30989 ft | 483 kts | 148° |
| 2026-05-06 15:33 | 35.66623 | -120.10816 | 31014 ft | 482 kts | 148° |
| 2026-05-06 15:34 | 35.60847 | -120.06681 | 31001 ft | 479 kts | 143° |
| 2026-05-06 15:34 | 35.55216 | -120.02284 | 31001 ft | 480 kts | 143° |
| 2026-05-06 15:35 | 35.49550 | -119.97935 | 30984 ft | 480 kts | 143° |
| 2026-05-06 15:35 | 35.43857 | -119.93646 | 30990 ft | 480 kts | 144° |
| 2026-05-06 15:36 | 35.38154 | -119.89371 | 30983 ft | 480 kts | 144° |
| 2026-05-06 15:36 | 35.32462 | -119.85104 | 30975 ft | 479 kts | 144° |
| 2026-05-06 15:37 | 35.26836 | -119.80760 | 30992 ft | 476 kts | 139° |
| 2026-05-06 15:37 | 35.21639 | -119.75889 | 30991 ft | 473 kts | 136° |
| 2026-05-06 15:38 | 35.16484 | -119.70889 | 30949 ft | 472 kts | 137° |
| 2026-05-06 15:38 | 35.13905 | -119.68440 | 30685 ft | 464 kts | 137° |
| 2026-05-06 15:38 | 35.11360 | -119.66054 | 30241 ft | 458 kts | 137° |
| 2026-05-06 15:39 | 35.08844 | -119.63711 | 29703 ft | 453 kts | 137° |
| 2026-05-06 15:39 | 35.06349 | -119.61393 | 29193 ft | 448 kts | 137° |
| 2026-05-06 15:39 | 35.03877 | -119.59098 | 28667 ft | 444 kts | 137° |
| 2026-05-06 15:39 | 35.01429 | -119.56824 | 28158 ft | 440 kts | 137° |
| 2026-05-06 15:40 | 34.99002 | -119.54571 | 27656 ft | 437 kts | 137° |
| 2026-05-06 15:40 | 34.96593 | -119.52334 | 27167 ft | 433 kts | 137° |
| 2026-05-06 15:40 | 34.94204 | -119.50118 | 26673 ft | 430 kts | 137° |
| 2026-05-06 15:40 | 34.91826 | -119.47916 | 26183 ft | 428 kts | 137° |
| 2026-05-06 15:41 | 34.89457 | -119.45751 | 25748 ft | 424 kts | 138° |
| 2026-05-06 15:41 | 34.87082 | -119.43626 | 25351 ft | 425 kts | 139° |
| 2026-05-06 15:41 | 34.84703 | -119.41507 | 24908 ft | 432 kts | 139° |
| 2026-05-06 15:41 | 34.82269 | -119.39338 | 24482 ft | 436 kts | 139° |
| 2026-05-06 15:42 | 34.79822 | -119.37156 | 24026 ft | 435 kts | 139° |
| 2026-05-06 15:42 | 34.77392 | -119.34988 | 23577 ft | 431 kts | 139° |
| 2026-05-06 15:42 | 34.74983 | -119.32839 | 23072 ft | 427 kts | 139° |
| 2026-05-06 15:42 | 34.72591 | -119.30730 | 22615 ft | 422 kts | 140° |
| 2026-05-06 15:43 | 34.70219 | -119.28662 | 22161 ft | 417 kts | 140° |
| 2026-05-06 15:43 | 34.67872 | -119.26618 | 21735 ft | 413 kts | 140° |
| 2026-05-06 15:43 | 34.65546 | -119.24591 | 21321 ft | 409 kts | 140° |
| 2026-05-06 15:43 | 34.63239 | -119.22587 | 20868 ft | 406 kts | 140° |
| 2026-05-06 15:44 | 34.60950 | -119.20614 | 20468 ft | 402 kts | 140° |
| 2026-05-06 15:44 | 34.58680 | -119.18666 | 20035 ft | 397 kts | 140° |
| 2026-05-06 15:44 | 34.56441 | -119.16738 | 19641 ft | 393 kts | 140° |
| 2026-05-06 15:44 | 34.54230 | -119.14801 | 19265 ft | 391 kts | 139° |
| 2026-05-06 15:45 | 34.52039 | -119.12846 | 18807 ft | 391 kts | 139° |
| 2026-05-06 15:45 | 34.49868 | -119.10869 | 18438 ft | 389 kts | 140° |
| 2026-05-06 15:45 | 34.47670 | -119.08952 | 17951 ft | 389 kts | 140° |
| 2026-05-06 15:45 | 34.45486 | -119.07038 | 17514 ft | 385 kts | 140° |
| 2026-05-06 15:46 | 34.43327 | -119.05139 | 17134 ft | 381 kts | 140° |
| 2026-05-06 15:46 | 34.41205 | -119.03296 | 16746 ft | 378 kts | 140° |
| 2026-05-06 15:46 | 34.39073 | -119.01453 | 16283 ft | 376 kts | 141° |
| 2026-05-06 15:46 | 34.36953 | -118.99623 | 15883 ft | 373 kts | 140° |
| 2026-05-06 15:47 | 34.34849 | -118.97804 | 15499 ft | 370 kts | 140° |
| 2026-05-06 15:47 | 34.32778 | -118.95977 | 15112 ft | 367 kts | 139° |
| 2026-05-06 15:47 | 34.30750 | -118.94128 | 14740 ft | 363 kts | 139° |
| 2026-05-06 15:47 | 34.28743 | -118.92293 | 14360 ft | 361 kts | 139° |
| 2026-05-06 15:48 | 34.26746 | -118.90475 | 13998 ft | 358 kts | 139° |
| 2026-05-06 15:48 | 34.24765 | -118.88674 | 13575 ft | 355 kts | 139° |
| 2026-05-06 15:48 | 34.23440 | -118.87458 | 13309 ft | 353 kts | 139° |
| 2026-05-06 15:48 | 34.21498 | -118.85670 | 12923 ft | 349 kts | 139° |
| 2026-05-06 15:49 | 34.19576 | -118.83903 | 12563 ft | 346 kts | 139° |
| 2026-05-06 15:49 | 34.17671 | -118.82155 | 12173 ft | 342 kts | 139° |
| 2026-05-06 15:49 | 34.15832 | -118.80426 | 11863 ft | 336 kts | 136° |
| 2026-05-06 15:49 | 34.14087 | -118.78577 | 11527 ft | 332 kts | 134° |
| 2026-05-06 15:50 | 34.12401 | -118.76698 | 11190 ft | 328 kts | 133° |
| 2026-05-06 15:50 | 34.10732 | -118.74837 | 10871 ft | 325 kts | 134° |
| 2026-05-06 15:50 | 34.09067 | -118.73001 | 10541 ft | 323 kts | 134° |
| 2026-05-06 15:50 | 34.07406 | -118.71189 | 10239 ft | 321 kts | 134° |
| 2026-05-06 15:51 | 34.05756 | -118.69390 | 9958 ft | 318 kts | 134° |
| 2026-05-06 15:51 | 34.04159 | -118.67643 | 9943 ft | 303 kts | 131° |
| 2026-05-06 15:51 | 34.03013 | -118.65565 | 9345 ft | 296 kts | 105° |
| 2026-05-06 15:51 | 34.02576 | -118.63177 | 8813 ft | 290 kts | 94° |
| 2026-05-06 15:52 | 34.02365 | -118.60770 | 8294 ft | 288 kts | 93° |
| 2026-05-06 15:52 | 34.02175 | -118.58406 | 7811 ft | 285 kts | 93° |
| 2026-05-06 15:52 | 34.01971 | -118.56036 | 7326 ft | 283 kts | 94° |
| 2026-05-06 15:52 | 34.01764 | -118.53682 | 6846 ft | 282 kts | 94° |
| 2026-05-06 15:53 | 34.01548 | -118.51342 | 6358 ft | 280 kts | 95° |
| 2026-05-06 15:53 | 34.01329 | -118.49016 | 5868 ft | 279 kts | 95° |
| 2026-05-06 15:53 | 34.01097 | -118.46548 | 5387 ft | 277 kts | 94° |
| 2026-05-06 15:53 | 34.01143 | -118.44424 | 5046 ft | 268 kts | 76° |
| 2026-05-06 15:54 | 34.01561 | -118.42273 | 4711 ft | 261 kts | 75° |
| 2026-05-06 15:54 | 34.01957 | -118.40146 | 4356 ft | 258 kts | 76° |
| 2026-05-06 15:54 | 34.02327 | -118.38050 | 3998 ft | 254 kts | 76° |
| 2026-05-06 15:54 | 34.02689 | -118.35979 | 3634 ft | 251 kts | 77° |
| 2026-05-06 15:55 | 34.03069 | -118.33939 | 3273 ft | 248 kts | 77° |
| 2026-05-06 15:55 | 34.03458 | -118.31950 | 3061 ft | 236 kts | 77° |
| 2026-05-06 15:55 | 34.03798 | -118.30103 | 3032 ft | 217 kts | 80° |
| 2026-05-06 15:55 | 34.04022 | -118.28345 | 3039 ft | 210 kts | 86° |
| 2026-05-06 15:56 | 34.03661 | -118.26689 | 3029 ft | 209 kts | 128° |
| 2026-05-06 15:56 | 34.02437 | -118.25803 | 3047 ft | 212 kts | 173° |
| 2026-05-06 15:56 | 34.00956 | -118.25812 | 3043 ft | 215 kts | 179° |
| 2026-05-06 15:56 | 33.99457 | -118.25755 | 3029 ft | 215 kts | 183° |
| 2026-05-06 15:57 | 33.98102 | -118.26311 | 3000 ft | 203 kts | 215° |
| 2026-05-06 15:57 | 33.96945 | -118.27329 | 2412 ft | 208 kts | 223° |
| 2026-05-06 15:57 | 33.96296 | -118.28783 | 1982 ft | 191 kts | 265° |
| 2026-05-06 15:57 | 33.96293 | -118.30284 | 1725 ft | 170 kts | 261° |
| 2026-05-06 15:58 | 33.96080 | -118.31605 | 1512 ft | 155 kts | 262° |
| 2026-05-06 15:58 | 33.95963 | -118.32856 | 1327 ft | 147 kts | 262° |
| 2026-05-06 15:58 | 33.95844 | -118.34058 | 1138 ft | 148 kts | 262° |
| 2026-05-06 15:58 | 33.95716 | -118.35297 | 941 ft | 150 kts | 262° |
| 2026-05-06 15:59 | 33.95587 | -118.36550 | 726 ft | 150 kts | 263° |
| 2026-05-06 15:59 | 33.95465 | -118.37780 | 515 ft | 145 kts | 263° |
| 2026-05-06 15:59 | 33.95338 | -118.38972 | 318 ft | 143 kts | 263° |
| 2026-05-06 15:59 | 33.95214 | -118.40161 | 142 ft | 139 kts | 263° |
| 2026-05-06 16:00 | 33.95108 | -118.41220 | 91 ft | 105 kts | 263° |
| 2026-05-06 16:00 | 33.95043 | -118.41853 | 94 ft | 54 kts | 262° |
| 2026-05-06 16:00 | 33.94962 | -118.42161 | 93 ft | 21 kts | 233° |
| 2026-05-06 16:00 | 33.94855 | -118.42267 | 95 ft | 20 kts | 190° |
| 2026-05-06 16:01 | 33.94721 | -118.42252 | 93 ft | 19 kts | 143° |
| 2026-05-06 16:01 | 33.94699 | -118.42100 | 93 ft | 19 kts | 84° |
| 2026-05-06 16:01 | 33.94713 | -118.41946 | 92 ft | 18 kts | 84° |
| 2026-05-06 16:01 | 33.94726 | -118.41797 | 94 ft | 18 kts | 84° |
| 2026-05-06 16:02 | 33.94739 | -118.41653 | 92 ft | 17 kts | 84° |
| 2026-05-06 16:02 | 33.94751 | -118.41514 | 94 ft | 16 kts | 84° |
| 2026-05-06 16:02 | 33.94777 | -118.41364 | 93 ft | 22 kts | 75° |
| 2026-05-06 16:02 | 33.94803 | -118.41184 | 97 ft | 22 kts | 82° |
| 2026-05-06 16:03 | 33.94822 | -118.41007 | 94 ft | 21 kts | 85° |
| 2026-05-06 16:03 | 33.94841 | -118.40814 | 93 ft | 32 kts | 82° |
| 2026-05-06 16:03 | 33.94874 | -118.40518 | 93 ft | 36 kts | 82° |
| 2026-05-06 16:03 | 33.94834 | -118.40287 | 94 ft | 27 kts | 156° |
| 2026-05-06 16:04 | 33.94726 | -118.40208 | 93 ft | 10 kts | 103° |
| 2026-05-06 16:04 | 33.94726 | -118.40190 | 93 ft | 0 kts | 85° |